Time;durP1;ratioP1;P1;durP2;ratioP2;P2;SDS_P1;SDS_P2;PMS_P1;PMS_P2;Temp;Humidity;BMP_temperature;BMP_pressure;BME280_temperature;BME280_humidity;BME280_pressure;Samples;Min_cycle;Max_cycle;Signal;HPM_P1;HPM_P2
2021/09/30 00:00:06;;;;;;;;;;;16.30;67.00;;;;;;5001076;28;87741;-51
2021/09/30 00:02:31;;;;;;;;;;;16.30;67.00;;;;;;4998344;28;88205;-49
2021/09/30 00:04:57;;;;;;;;;;;16.30;67.00;;;;;;4998453;28;88736;-50
2021/09/30 00:07:22;;;;;;;;;;;16.30;67.00;;;;;;4999067;28;88166;-50
2021/09/30 00:09:48;;;;;;;;;;;16.30;67.00;;;;;;4999968;28;88556;-51
2021/09/30 00:12:17;;;;;;;;;;;16.30;66.90;;;;;;4998831;28;89037;-50
2021/09/30 00:49:38;;;;;;;;;;;16.20;66.90;;;;;;4998963;28;87116;-50
2021/09/30 01:30:37;;;;;;;;;;;16.10;67.20;;;;;;5000534;28;88162;-49
2021/09/30 01:58:28;;;;;;;;;;;16.00;67.20;;;;;;5002281;28;87198;-50
2021/09/30 02:21:24;;;;;;;;;;;16.00;67.20;;;;;;4999760;28;87129;-50
2021/09/30 02:28:34;;;;;;;;;;;16.00;67.20;;;;;;5002593;28;87501;-50
2021/09/30 02:58:32;;;;;;;;;;;15.90;67.20;;;;;;5000824;28;87147;-51
2021/09/30 03:01:13;;;;;;;;;;;15.90;67.20;;;;;;5000452;28;89148;-50
2021/09/30 03:03:40;;;;;;;;;;;15.90;67.20;;;;;;5000087;28;87123;-50
2021/09/30 03:06:06;;;;;;;;;;;15.90;67.10;;;;;;4997813;28;88571;-50
2021/09/30 03:08:35;;;;;;;;;;;15.90;67.10;;;;;;5000977;28;87356;-52
2021/09/30 03:11:01;;;;;;;;;;;15.90;67.10;;;;;;4998053;28;88028;-50
2021/09/30 03:13:28;;;;;;;;;;;15.80;67.40;;;;;;4996645;28;88129;-51
2021/09/30 03:15:58;;;;;;;;;;;15.80;67.40;;;;;;5000384;28;89356;-50
2021/09/30 03:18:27;;;;;;;;;;;15.90;67.40;;;;;;4997526;28;89566;-51
2021/09/30 03:23:30;;;;;;;;;;;15.80;67.50;;;;;;4997967;28;87099;-50
2021/09/30 03:25:56;;;;;;;;;;;15.80;67.20;;;;;;4998720;28;88818;-50
2021/09/30 03:28:25;;;;;;;;;;;15.80;67.20;;;;;;4999630;28;88272;-50
2021/09/30 03:30:54;;;;;;;;;;;15.90;67.20;;;;;;4999855;28;87880;-50
2021/09/30 03:33:21;;;;;;;;;;;15.80;67.70;;;;;;4999200;28;89147;-51
2021/09/30 03:35:46;;;;;;;;;;;15.80;67.10;;;;;;4998675;28;87168;-51
2021/09/30 03:38:12;;;;;;;;;;;15.80;67.10;;;;;;4999907;28;87930;-51
2021/09/30 03:40:38;;;;;;;;;;;15.80;67.10;;;;;;4999902;28;88588;-50
2021/09/30 03:43:04;;;;;;;;;;;15.90;67.00;;;;;;5000856;28;88044;-51
2021/09/30 03:45:30;;;;;;;;;;;15.80;67.00;;;;;;4999118;28;88641;-52
2021/09/30 03:47:55;;;;;;;;;;;15.80;67.10;;;;;;4996044;28;89536;-51
2021/09/30 03:50:33;;;;;;;;;;;15.80;67.10;;;;;;4997606;28;87181;-51
2021/09/30 04:01:04;;;;;;;;;;;15.80;66.90;;;;;;4999713;28;87917;-51
2021/09/30 04:03:30;;;;;;;;;;;15.80;67.00;;;;;;4999073;28;88337;-52
2021/09/30 04:05:55;;;;;;;;;;;15.70;67.10;;;;;;5000350;28;88103;-51
2021/09/30 04:08:21;;;;;;;;;;;15.70;67.10;;;;;;4999960;28;88201;-51
2021/09/30 04:10:46;;;;;;;;;;;15.70;67.10;;;;;;4997800;28;88788;-50
2021/09/30 04:13:12;;;;;;;;;;;15.70;67.00;;;;;;4996345;28;88235;-50
2021/09/30 04:15:37;;;;;;;;;;;15.70;67.00;;;;;;5000277;28;87486;-51
2021/09/30 04:18:03;;;;;;;;;;;15.70;67.00;;;;;;4999017;28;87157;-50
2021/09/30 04:20:29;;;;;;;;;;;15.70;67.10;;;;;;4999385;28;89456;-51
2021/09/30 04:22:54;;;;;;;;;;;15.70;67.00;;;;;;5001029;28;87300;-50
2021/09/30 04:25:21;;;;;;;;;;;15.70;67.10;;;;;;4997299;28;87171;-51
2021/09/30 04:27:47;;;;;;;;;;;15.70;67.20;;;;;;4997637;28;89845;-51
2021/09/30 04:30:12;;;;;;;;;;;15.70;67.10;;;;;;4995644;28;88078;-50
2021/09/30 04:32:38;;;;;;;;;;;15.70;67.20;;;;;;4997146;28;90058;-50
2021/09/30 04:35:04;;;;;;;;;;;15.70;67.20;;;;;;4997495;28;88102;-50
2021/09/30 04:37:29;;;;;;;;;;;15.70;67.00;;;;;;5001926;28;87192;-49
2021/09/30 04:39:55;;;;;;;;;;;15.70;67.10;;;;;;4999445;28;87764;-51
2021/09/30 04:42:21;;;;;;;;;;;15.70;67.00;;;;;;5000403;28;87193;-51
2021/09/30 04:44:47;;;;;;;;;;;15.60;67.00;;;;;;5002682;28;88702;-51
2021/09/30 04:47:13;;;;;;;;;;;15.60;67.00;;;;;;5003009;28;88780;-50
2021/09/30 04:49:38;;;;;;;;;;;15.60;67.10;;;;;;5003966;28;88087;-50
2021/09/30 04:52:04;;;;;;;;;;;15.60;67.10;;;;;;5001380;28;88144;-51
2021/09/30 04:54:30;;;;;;;;;;;15.70;67.00;;;;;;4998235;28;88706;-50
2021/09/30 04:56:55;;;;;;;;;;;15.70;66.90;;;;;;5003529;28;87221;-49
2021/09/30 04:59:21;;;;;;;;;;;15.60;67.00;;;;;;5001435;28;88190;-50
2021/09/30 05:01:46;;;;;;;;;;;15.70;67.00;;;;;;5003145;28;87233;-51
2021/09/30 05:04:12;;;;;;;;;;;15.60;66.90;;;;;;5003150;28;88681;-51
2021/09/30 05:06:37;;;;;;;;;;;15.60;67.00;;;;;;4999632;28;88384;-51
2021/09/30 05:09:03;;;;;;;;;;;15.60;67.00;;;;;;4999753;28;87169;-51
2021/09/30 05:11:35;;;;;;;;;;;15.60;67.10;;;;;;5001443;28;88803;-50
2021/09/30 05:14:00;;;;;;;;;;;15.60;67.30;;;;;;4999800;28;87135;-50
2021/09/30 05:16:26;;;;;;;;;;;15.60;67.20;;;;;;5001383;28;87214;-51
2021/09/30 05:18:55;;;;;;;;;;;15.60;67.10;;;;;;5003442;28;89029;-52
2021/09/30 05:21:20;;;;;;;;;;;15.60;67.00;;;;;;5003178;28;87220;-50
2021/09/30 05:23:47;;;;;;;;;;;15.60;67.10;;;;;;5002663;28;87467;-51
2021/09/30 05:26:13;;;;;;;;;;;15.60;67.30;;;;;;4999515;28;89510;-50
2021/09/30 05:28:38;;;;;;;;;;;15.60;67.20;;;;;;5000821;28;87119;-51
2021/09/30 05:31:04;;;;;;;;;;;15.60;67.20;;;;;;5001131;28;87499;-50
2021/09/30 05:33:30;;;;;;;;;;;15.50;67.10;;;;;;5001178;28;89142;-51
2021/09/30 05:35:55;;;;;;;;;;;15.50;67.20;;;;;;5002450;28;86485;-50
2021/09/30 05:38:21;;;;;;;;;;;15.50;67.20;;;;;;5002306;28;88383;-51
2021/09/30 05:40:50;;;;;;;;;;;15.50;67.30;;;;;;5004499;28;87767;-51
2021/09/30 05:43:22;;;;;;;;;;;15.50;67.20;;;;;;4998762;28;89217;-51
2021/09/30 05:45:53;;;;;;;;;;;15.50;67.10;;;;;;4997537;28;88329;-50
2021/09/30 05:48:19;;;;;;;;;;;15.60;67.00;;;;;;4998559;28;87105;-51
2021/09/30 05:50:44;;;;;;;;;;;15.60;67.00;;;;;;4999705;28;89043;-50
2021/09/30 05:53:10;;;;;;;;;;;15.50;67.00;;;;;;4998680;28;89457;-50
2021/09/30 05:55:35;;;;;;;;;;;15.50;67.10;;;;;;4998885;28;87171;-50
2021/09/30 05:58:01;;;;;;;;;;;15.50;67.20;;;;;;4998205;28;87541;-51
2021/09/30 06:00:34;;;;;;;;;;;15.50;67.30;;;;;;4998074;28;86981;-50
2021/09/30 06:13:44;;;;;;;;;;;15.60;66.80;;;;;;5000795;28;87928;-50
2021/09/30 06:16:14;;;;;;;;;;;15.60;67.40;;;;;;5001378;28;88034;-50
2021/09/30 06:18:40;;;;;;;;;;;15.60;66.90;;;;;;4997365;28;88681;-52
2021/09/30 06:21:05;;;;;;;;;;;15.60;67.00;;;;;;4997404;28;87835;-50
2021/09/30 06:23:31;;;;;;;;;;;15.50;67.10;;;;;;4996624;28;87140;-52
2021/09/30 06:25:56;;;;;;;;;;;15.50;67.00;;;;;;4999940;28;87559;-50
2021/09/30 06:28:22;;;;;;;;;;;15.60;67.10;;;;;;4997891;28;87165;-51
2021/09/30 06:30:47;;;;;;;;;;;15.60;67.10;;;;;;4998417;28;87463;-50
2021/09/30 06:33:13;;;;;;;;;;;15.50;67.30;;;;;;4996846;28;89317;-50
2021/09/30 06:35:38;;;;;;;;;;;15.50;67.10;;;;;;4956259;28;1218688;-50
2021/09/30 06:38:04;;;;;;;;;;;15.50;67.30;;;;;;5000129;28;89084;-51
2021/09/30 06:40:31;;;;;;;;;;;15.50;67.20;;;;;;5000328;28;88223;-50
2021/09/30 06:42:57;;;;;;;;;;;15.50;67.30;;;;;;4999298;28;87142;-50
2021/09/30 06:45:23;;;;;;;;;;;15.50;67.20;;;;;;5001674;28;89027;-50
2021/09/30 06:47:48;;;;;;;;;;;15.50;67.20;;;;;;4999982;28;87156;-51
2021/09/30 06:50:15;;;;;;;;;;;15.50;67.10;;;;;;5001756;28;87333;-50
2021/09/30 06:52:41;;;;;;;;;;;15.50;67.10;;;;;;5000265;28;89263;-50
2021/09/30 06:55:07;;;;;;;;;;;15.50;67.10;;;;;;4999555;28;87180;-51
2021/09/30 06:57:32;;;;;;;;;;;15.50;67.00;;;;;;4999139;28;88119;-51
2021/09/30 07:00:06;;;;;;;;;;;15.50;67.00;;;;;;5000765;28;87950;-51
2021/09/30 07:02:32;;;;;;;;;;;15.50;67.00;;;;;;4998171;28;87199;-50
2021/09/30 07:04:58;;;;;;;;;;;15.60;66.90;;;;;;4996822;28;87151;-51
2021/09/30 07:07:23;;;;;;;;;;;15.60;66.90;;;;;;5000253;28;89278;-51
2021/09/30 07:09:49;;;;;;;;;;;15.50;67.10;;;;;;4997851;28;87195;-51
2021/09/30 07:12:15;;;;;;;;;;;15.50;67.20;;;;;;4998575;28;88296;-50
2021/09/30 07:14:40;;;;;;;;;;;15.50;67.00;;;;;;5000614;28;86498;-50
2021/09/30 07:17:06;;;;;;;;;;;15.60;67.00;;;;;;5000740;28;88643;-51
2021/09/30 07:19:33;;;;;;;;;;;15.50;67.00;;;;;;4999988;28;88153;-51
2021/09/30 07:21:59;;;;;;;;;;;15.50;67.10;;;;;;4998116;28;88128;-51
2021/09/30 07:24:24;;;;;;;;;;;15.50;67.00;;;;;;4999151;28;88436;-50
2021/09/30 07:26:50;;;;;;;;;;;15.50;67.60;;;;;;5000044;28;87212;-50
2021/09/30 07:29:15;;;;;;;;;;;15.50;66.90;;;;;;5004050;28;87125;-50
2021/09/30 07:31:41;;;;;;;;;;;15.50;66.80;;;;;;5000206;28;88683;-50
2021/09/30 07:34:11;;;;;;;;;;;15.60;66.80;;;;;;4999563;28;87179;-51
2021/09/30 07:36:38;;;;;;;;;;;15.60;66.80;;;;;;5000379;28;88005;-52
2021/09/30 07:39:03;;;;;;;;;;;15.50;66.90;;;;;;5001526;28;87648;-50
2021/09/30 07:41:29;;;;;;;;;;;15.50;66.80;;;;;;5001166;28;87831;-50
2021/09/30 07:43:54;;;;;;;;;;;15.50;66.90;;;;;;4998252;28;88706;-51
2021/09/30 07:46:20;;;;;;;;;;;15.50;66.90;;;;;;4999067;28;89837;-50
2021/09/30 07:48:45;;;;;;;;;;;15.50;67.10;;;;;;5001080;28;87212;-51
2021/09/30 07:51:12;;;;;;;;;;;15.50;67.10;;;;;;5003885;28;87385;-51
2021/09/30 07:53:38;;;;;;;;;;;15.50;66.90;;;;;;5000191;28;87154;-51
2021/09/30 07:56:03;;;;;;;;;;;15.50;67.00;;;;;;5000719;28;88964;-51
2021/09/30 07:58:29;;;;;;;;;;;15.50;67.10;;;;;;5000639;28;89800;-51
2021/09/30 08:00:55;;;;;;;;;;;15.50;67.10;;;;;;4998576;28;88675;-51
2021/09/30 08:03:20;;;;;;;;;;;15.50;67.10;;;;;;4997360;28;89182;-51
2021/09/30 08:05:46;;;;;;;;;;;15.50;67.20;;;;;;4996002;28;89209;-50
2021/09/30 08:08:11;;;;;;;;;;;15.40;67.20;;;;;;4996947;28;87149;-50
2021/09/30 08:10:38;;;;;;;;;;;15.50;67.20;;;;;;4996985;28;88096;-50
2021/09/30 08:13:04;;;;;;;;;;;15.50;67.10;;;;;;4999078;28;89711;-52
2021/09/30 08:15:30;;;;;;;;;;;15.50;67.20;;;;;;4997419;28;89197;-51
2021/09/30 08:17:56;;;;;;;;;;;15.50;67.30;;;;;;4997524;28;88161;-51
2021/09/30 08:20:22;;;;;;;;;;;15.40;67.20;;;;;;4999049;28;87168;-52
2021/09/30 08:22:48;;;;;;;;;;;15.50;67.10;;;;;;4999304;28;88994;-51
2021/09/30 08:25:13;;;;;;;;;;;15.50;67.20;;;;;;4998896;28;88807;-50
2021/09/30 08:27:39;;;;;;;;;;;15.40;67.10;;;;;;5000954;28;86425;-50
2021/09/30 08:30:05;;;;;;;;;;;15.50;67.10;;;;;;4999394;28;87998;-50
2021/09/30 08:32:31;;;;;;;;;;;15.50;67.20;;;;;;4998030;28;88570;-49
2021/09/30 08:34:56;;;;;;;;;;;15.50;67.10;;;;;;4998172;28;88105;-50
2021/09/30 08:37:22;;;;;;;;;;;15.50;67.20;;;;;;4996636;28;88126;-51
2021/09/30 08:39:47;;;;;;;;;;;15.50;67.20;;;;;;4998280;28;87156;-51
2021/09/30 08:42:13;;;;;;;;;;;15.50;67.20;;;;;;4999416;28;88688;-50
2021/09/30 08:44:38;;;;;;;;;;;15.50;67.20;;;;;;4999866;28;87769;-50
2021/09/30 08:47:04;;;;;;;;;;;15.50;67.10;;;;;;5000723;28;87220;-50
2021/09/30 08:49:31;;;;;;;;;;;15.50;67.30;;;;;;4999502;28;87405;-50
2021/09/30 08:51:56;;;;;;;;;;;15.50;67.30;;;;;;4998603;28;88753;-50
2021/09/30 08:54:22;;;;;;;;;;;15.40;67.60;;;;;;4998651;28;87884;-51
2021/09/30 08:56:48;;;;;;;;;;;15.40;67.60;;;;;;4995929;28;88195;-50
2021/09/30 08:59:13;;;;;;;;;;;15.40;67.60;;;;;;4996792;28;88111;-50
2021/09/30 09:01:39;;;;;;;;;;;15.40;67.60;;;;;;4998526;28;89472;-50
2021/09/30 09:04:15;;;;;;;;;;;15.40;67.60;;;;;;4998472;28;88311;-51
2021/09/30 09:06:41;;;;;;;;;;;15.40;67.60;;;;;;4999062;28;87141;-50
2021/09/30 09:09:27;;;;;;;;;;;15.40;67.90;;;;;;5000442;28;87237;-51
2021/09/30 09:11:54;;;;;;;;;;;15.40;67.70;;;;;;4998867;28;88299;-50
2021/09/30 09:14:29;;;;;;;;;;;15.40;67.80;;;;;;4998861;28;87155;-51
2021/09/30 09:17:03;;;;;;;;;;;15.50;67.70;;;;;;5002996;28;88993;-52
2021/09/30 09:19:31;;;;;;;;;;;15.40;67.70;;;;;;4996593;28;87126;-50
2021/09/30 09:22:02;;;;;;;;;;;15.40;67.70;;;;;;4995361;28;88938;-50
2021/09/30 09:24:27;;;;;;;;;;;15.50;67.50;;;;;;4999157;28;89219;-51
2021/09/30 09:26:57;;;;;;;;;;;15.50;67.40;;;;;;4996475;28;87970;-51
2021/09/30 09:29:23;;;;;;;;;;;15.50;67.50;;;;;;4997589;28;89340;-51
2021/09/30 09:31:49;;;;;;;;;;;15.50;67.50;;;;;;5001083;28;88755;-50
2021/09/30 09:34:16;;;;;;;;;;;15.50;67.40;;;;;;5002330;28;87158;-51
2021/09/30 09:36:41;;;;;;;;;;;15.50;67.60;;;;;;5000639;28;89291;-50
2021/09/30 09:39:07;;;;;;;;;;;15.50;67.40;;;;;;5002202;28;88023;-50
2021/09/30 09:41:35;;;;;;;;;;;15.50;67.50;;;;;;4999608;28;87898;-50
2021/09/30 09:44:02;;;;;;;;;;;15.50;67.60;;;;;;5002687;28;87637;-50
2021/09/30 09:46:28;;;;;;;;;;;15.50;67.60;;;;;;5001868;28;87168;-50
2021/09/30 09:49:01;;;;;;;;;;;15.50;67.60;;;;;;5001248;28;88757;-52
2021/09/30 09:51:34;;;;;;;;;;;15.50;67.80;;;;;;4999664;28;89878;-50
2021/09/30 09:54:00;;;;;;;;;;;15.50;67.70;;;;;;4999087;28;87211;-50
2021/09/30 09:56:25;;;;;;;;;;;15.50;67.90;;;;;;4998764;28;88922;-51
2021/09/30 09:58:55;;;;;;;;;;;15.50;67.80;;;;;;4997810;28;87607;-52
2021/09/30 10:01:22;;;;;;;;;;;15.50;67.80;;;;;;5001578;28;87163;-52
2021/09/30 10:03:49;;;;;;;;;;;15.50;67.80;;;;;;4999815;28;89897;-49
2021/09/30 10:06:15;;;;;;;;;;;15.50;67.90;;;;;;5002702;28;86495;-50
2021/09/30 10:08:41;;;;;;;;;;;15.50;67.90;;;;;;5001560;28;87943;-51
2021/09/30 10:11:06;;;;;;;;;;;15.50;67.90;;;;;;5002185;28;88169;-53
2021/09/30 10:13:35;;;;;;;;;;;15.50;67.90;;;;;;4999981;28;89322;-51
2021/09/30 10:16:01;;;;;;;;;;;15.40;67.90;;;;;;5000626;28;90080;-51
2021/09/30 10:18:28;;;;;;;;;;;15.40;68.30;;;;;;5001115;28;88178;-50
2021/09/30 10:20:54;;;;;;;;;;;15.40;68.30;;;;;;5000946;28;87216;-51
2021/09/30 10:23:25;;;;;;;;;;;15.40;68.40;;;;;;5003531;28;87650;-50
2021/09/30 10:25:51;;;;;;;;;;;15.40;68.40;;;;;;5000879;28;87279;-50
2021/09/30 10:28:17;;;;;;;;;;;15.40;68.30;;;;;;5000302;28;87647;-50
2021/09/30 10:30:45;;;;;;;;;;;15.50;68.10;;;;;;5000742;28;88207;-50
2021/09/30 10:33:36;;;;;;;;;;;15.40;68.20;;;;;;4999737;28;87255;-51
2021/09/30 10:36:02;;;;;;;;;;;15.40;68.10;;;;;;4996379;28;87182;-50
2021/09/30 10:38:33;;;;;;;;;;;15.40;68.30;;;;;;4999650;28;88334;-51
2021/09/30 10:41:02;;;;;;;;;;;15.40;68.20;;;;;;4999427;28;87233;-50
2021/09/30 10:43:28;;;;;;;;;;;15.40;68.20;;;;;;4997887;28;87299;-50
2021/09/30 10:45:54;;;;;;;;;;;15.40;68.20;;;;;;5000042;28;89527;-51
2021/09/30 10:48:22;;;;;;;;;;;15.40;68.30;;;;;;4998074;28;88750;-50
2021/09/30 10:50:49;;;;;;;;;;;15.40;68.20;;;;;;5000391;28;88205;-50
2021/09/30 10:53:14;;;;;;;;;;;15.40;68.30;;;;;;5000699;28;87223;-50
2021/09/30 10:55:40;;;;;;;;;;;15.40;68.10;;;;;;5000626;28;87150;-51
2021/09/30 10:58:19;;;;;;;;;;;15.40;68.00;;;;;;4999877;28;87619;-51
2021/09/30 11:00:46;;;;;;;;;;;15.40;68.20;;;;;;4997238;28;88158;-50
2021/09/30 11:03:20;;;;;;;;;;;15.40;68.10;;;;;;4998486;28;88192;-51
2021/09/30 11:06:04;;;;;;;;;;;15.40;68.00;;;;;;5000989;28;88630;-50
2021/09/30 11:08:33;;;;;;;;;;;15.40;68.10;;;;;;4999725;28;88750;-52
2021/09/30 11:11:08;;;;;;;;;;;15.40;68.10;;;;;;5001381;28;89428;-51
2021/09/30 11:13:46;;;;;;;;;;;15.40;68.10;;;;;;5000762;28;87133;-50
2021/09/30 11:16:14;;;;;;;;;;;15.40;68.10;;;;;;4997078;28;88556;-50
2021/09/30 11:18:42;;;;;;;;;;;15.40;68.10;;;;;;5000275;28;87837;-52
2021/09/30 11:21:26;;;;;;;;;;;15.40;67.90;;;;;;4999080;28;87459;-50
2021/09/30 11:23:52;;;;;;;;;;;15.40;68.00;;;;;;4996950;28;87156;-51
2021/09/30 11:26:17;;;;;;;;;;;15.40;68.10;;;;;;4996921;28;89869;-49
2021/09/30 11:28:43;;;;;;;;;;;15.40;68.10;;;;;;4998950;28;88139;-50
2021/09/30 11:31:27;;;;;;;;;;;15.40;68.10;;;;;;4996502;28;89821;-51
2021/09/30 11:33:57;;;;;;;;;;;15.40;68.00;;;;;;5000304;28;87192;-50
2021/09/30 11:36:30;;;;;;;;;;;15.40;67.90;;;;;;5000719;28;89481;-50
2021/09/30 11:38:59;;;;;;;;;;;15.40;67.80;;;;;;4998001;28;88150;-52
2021/09/30 11:41:27;;;;;;;;;;;15.40;67.90;;;;;;5000530;28;87151;-51
2021/09/30 11:43:53;;;;;;;;;;;15.40;67.90;;;;;;4996484;28;87525;-51
2021/09/30 11:46:22;;;;;;;;;;;15.40;68.00;;;;;;4998672;28;87634;-50
2021/09/30 11:49:00;;;;;;;;;;;15.40;67.80;;;;;;4997181;28;87178;-50
2021/09/30 11:51:32;;;;;;;;;;;15.40;68.00;;;;;;5002360;28;87886;-50
2021/09/30 11:53:58;;;;;;;;;;;15.40;67.90;;;;;;4997972;28;88113;-51
2021/09/30 11:56:24;;;;;;;;;;;15.40;67.80;;;;;;4997653;28;88671;-50
2021/09/30 11:59:01;;;;;;;;;;;15.40;67.80;;;;;;4996526;28;88329;-51
2021/09/30 12:01:46;;;;;;;;;;;15.40;67.70;;;;;;5000195;28;87197;-50
2021/09/30 12:04:13;;;;;;;;;;;15.40;67.80;;;;;;5001099;28;87456;-50
2021/09/30 12:06:38;;;;;;;;;;;15.40;67.80;;;;;;4998923;28;89481;-50
2021/09/30 12:09:04;;;;;;;;;;;15.40;67.90;;;;;;4999971;28;87169;-50
2021/09/30 12:11:31;;;;;;;;;;;15.40;67.90;;;;;;4999880;28;86394;-50
2021/09/30 12:13:58;;;;;;;;;;;15.40;68.10;;;;;;5000076;28;88287;-50
2021/09/30 12:16:23;;;;;;;;;;;15.50;68.00;;;;;;4996921;28;87501;-51
2021/09/30 12:18:57;;;;;;;;;;;15.40;67.90;;;;;;4994879;28;88472;-51
2021/09/30 12:21:32;;;;;;;;;;;15.40;67.90;;;;;;4997626;28;87140;-51
2021/09/30 12:23:58;;;;;;;;;;;15.40;68.00;;;;;;4998419;28;87227;-50
2021/09/30 12:26:24;;;;;;;;;;;15.40;67.80;;;;;;4998364;28;88154;-51
2021/09/30 12:28:51;;;;;;;;;;;15.50;68.00;;;;;;4998021;28;87200;-50
2021/09/30 12:31:17;;;;;;;;;;;15.40;67.70;;;;;;4997084;28;89583;-51
2021/09/30 12:33:42;;;;;;;;;;;15.40;67.90;;;;;;5000355;28;90630;-50
2021/09/30 12:36:08;;;;;;;;;;;15.40;67.70;;;;;;5003043;28;86483;-51
2021/09/30 12:38:33;;;;;;;;;;;15.40;67.80;;;;;;4998973;28;87793;-50
2021/09/30 12:41:05;;;;;;;;;;;15.50;67.90;;;;;;4998713;28;87130;-50
2021/09/30 12:43:31;;;;;;;;;;;15.40;67.80;;;;;;4995841;28;88683;-50
2021/09/30 12:46:00;;;;;;;;;;;15.40;67.80;;;;;;5000167;28;88653;-50
2021/09/30 12:48:27;;;;;;;;;;;15.40;67.70;;;;;;4996005;28;87165;-50
2021/09/30 12:50:57;;;;;;;;;;;15.40;67.80;;;;;;4998350;28;87795;-51
2021/09/30 12:53:22;;;;;;;;;;;15.40;67.80;;;;;;4995903;28;89705;-50
2021/09/30 12:55:49;;;;;;;;;;;15.40;67.70;;;;;;4996618;28;87199;-50
2021/09/30 12:58:28;;;;;;;;;;;15.40;67.60;;;;;;4998565;28;87950;-51
2021/09/30 13:00:54;;;;;;;;;;;15.40;67.70;;;;;;4998115;28;86495;-51
2021/09/30 13:03:19;;;;;;;;;;;15.40;67.70;;;;;;4998725;28;89046;-51
2021/09/30 13:05:55;;;;;;;;;;;15.40;67.70;;;;;;5001707;28;87845;-50
2021/09/30 13:08:42;;;;;;;;;;;15.50;67.60;;;;;;4999436;28;88093;-52
2021/09/30 13:11:22;;;;;;;;;;;15.50;67.30;;;;;;4999694;28;90011;-51
2021/09/30 13:14:06;;;;;;;;;;;15.40;67.40;;;;;;5003264;28;87585;-50
2021/09/30 13:16:32;;;;;;;;;;;15.40;67.30;;;;;;4998855;28;87257;-50
2021/09/30 13:18:57;;;;;;;;;;;15.50;67.40;;;;;;5002050;28;89264;-50
2021/09/30 13:21:23;;;;;;;;;;;15.50;67.40;;;;;;4999280;28;88069;-51
2021/09/30 13:23:48;;;;;;;;;;;15.50;67.10;;;;;;4999437;28;87196;-52
2021/09/30 13:26:14;;;;;;;;;;;15.50;67.20;;;;;;5000027;28;86939;-50
2021/09/30 13:28:39;;;;;;;;;;;15.50;67.20;;;;;;5000642;28;87189;-51
2021/09/30 13:31:05;;;;;;;;;;;15.40;67.30;;;;;;5000187;28;87171;-50
2021/09/30 13:33:31;;;;;;;;;;;15.50;67.20;;;;;;4998678;28;89468;-51
2021/09/30 13:35:56;;;;;;;;;;;15.50;66.90;;;;;;4998879;28;87198;-49
2021/09/30 13:38:22;;;;;;;;;;;15.50;67.10;;;;;;4998401;28;87176;-50
2021/09/30 13:40:47;;;;;;;;;;;15.50;67.00;;;;;;5002073;28;89179;-51
2021/09/30 13:43:13;;;;;;;;;;;15.50;67.10;;;;;;4998678;28;89054;-51
2021/09/30 13:45:39;;;;;;;;;;;15.50;67.20;;;;;;4998307;28;87328;-51
2021/09/30 13:48:04;;;;;;;;;;;15.50;67.00;;;;;;5000037;28;88693;-51
2021/09/30 13:50:30;;;;;;;;;;;15.50;66.90;;;;;;5003397;28;87537;-52
2021/09/30 13:52:55;;;;;;;;;;;15.50;67.10;;;;;;5002163;28;89464;-50
2021/09/30 13:55:24;;;;;;;;;;;15.50;67.00;;;;;;5002587;28;87171;-50
2021/09/30 13:57:49;;;;;;;;;;;15.50;67.00;;;;;;4998261;28;88108;-52
2021/09/30 14:00:16;;;;;;;;;;;15.50;67.20;;;;;;4998167;28;89982;-50
2021/09/30 14:02:43;;;;;;;;;;;15.50;67.10;;;;;;5001699;28;87180;-50
2021/09/30 14:05:10;;;;;;;;;;;15.50;66.90;;;;;;5001737;28;87152;-50
2021/09/30 14:07:36;;;;;;;;;;;15.50;66.90;;;;;;5000269;28;87159;-51
2021/09/30 14:10:05;;;;;;;;;;;15.50;67.20;;;;;;4998619;28;87584;-49
2021/09/30 14:12:31;;;;;;;;;;;15.40;67.00;;;;;;4999209;28;89574;-50
2021/09/30 14:14:57;;;;;;;;;;;15.50;66.90;;;;;;4999068;28;86505;-50
2021/09/30 14:17:23;;;;;;;;;;;15.40;67.10;;;;;;4997908;28;88044;-52
2021/09/30 14:19:49;;;;;;;;;;;15.50;66.80;;;;;;5000064;28;88062;-52
2021/09/30 14:22:14;;;;;;;;;;;15.50;67.10;;;;;;4999736;28;89964;-50
2021/09/30 14:24:40;;;;;;;;;;;15.60;66.80;;;;;;5003197;28;89636;-51
2021/09/30 14:27:05;;;;;;;;;;;15.50;66.80;;;;;;5002443;28;87167;-51
2021/09/30 14:29:32;;;;;;;;;;;15.50;66.80;;;;;;5001649;28;87543;-51
2021/09/30 14:31:58;;;;;;;;;;;15.60;66.50;;;;;;4998638;28;89798;-50
2021/09/30 14:34:24;;;;;;;;;;;15.50;66.60;;;;;;4998737;28;87188;-51
2021/09/30 14:36:49;;;;;;;;;;;15.50;66.60;;;;;;4999928;28;87231;-50
2021/09/30 14:39:15;;;;;;;;;;;15.50;66.60;;;;;;4999504;28;87162;-50
2021/09/30 14:41:40;;;;;;;;;;;15.60;66.50;;;;;;4998357;28;87256;-52
2021/09/30 14:44:07;;;;;;;;;;;15.60;66.30;;;;;;4997798;28;88703;-51
2021/09/30 14:46:32;;;;;;;;;;;15.70;66.10;;;;;;5004336;28;89131;-51
2021/09/30 14:48:58;;;;;;;;;;;15.70;66.10;;;;;;5001728;28;87909;-51
2021/09/30 14:51:23;;;;;;;;;;;15.60;66.10;;;;;;5001364;28;88160;-50
2021/09/30 14:53:49;;;;;;;;;;;15.70;66.20;;;;;;5000455;28;88021;-51
2021/09/30 14:56:14;;;;;;;;;;;15.70;66.20;;;;;;5002231;28;87993;-50
2021/09/30 14:58:40;;;;;;;;;;;15.70;66.10;;;;;;5001049;28;89035;-50
2021/09/30 15:01:06;;;;;;;;;;;15.60;66.20;;;;;;5002145;28;87244;-50
2021/09/30 15:03:32;;;;;;;;;;;15.60;66.10;;;;;;4999955;28;88482;-51
2021/09/30 15:05:57;;;;;;;;;;;15.60;66.10;;;;;;4998859;28;88216;-50
2021/09/30 15:08:23;;;;;;;;;;;15.70;66.00;;;;;;5002417;28;87204;-49
2021/09/30 15:10:48;;;;;;;;;;;15.60;65.90;;;;;;4998005;28;89377;-51
2021/09/30 15:13:14;;;;;;;;;;;15.60;65.90;;;;;;4998139;28;87215;-51
2021/09/30 15:15:40;;;;;;;;;;;15.60;66.00;;;;;;4997506;28;87241;-52
2021/09/30 15:18:11;;;;;;;;;;;15.60;66.00;;;;;;4998162;28;89407;-51
2021/09/30 15:23:02;;;;;;;;;;;15.60;66.10;;;;;;5000261;28;87113;-49
2021/09/30 15:25:28;;;;;;;;;;;15.60;66.00;;;;;;4998544;28;88074;-50
2021/09/30 15:27:55;;;;;;;;;;;15.60;66.00;;;;;;5001362;28;86416;-52
2021/09/30 15:30:20;;;;;;;;;;;15.60;65.90;;;;;;4996339;28;88077;-48
2021/09/30 15:32:46;;;;;;;;;;;15.60;65.80;;;;;;4999722;28;88890;-48
2021/09/30 15:35:11;;;;;;;;;;;15.60;65.70;;;;;;5000329;28;88087;-51
2021/09/30 15:37:37;;;;;;;;;;;15.60;65.90;;;;;;4999865;28;88805;-51
2021/09/30 15:40:04;;;;;;;;;;;15.60;65.80;;;;;;4997128;28;88130;-50
2021/09/30 15:42:29;;;;;;;;;;;15.60;65.80;;;;;;4997830;28;88738;-50
2021/09/30 15:44:57;;;;;;;;;;;15.60;65.80;;;;;;4996944;28;88302;-50
2021/09/30 15:47:24;;;;;;;;;;;15.60;65.70;;;;;;5001009;28;88001;-51
2021/09/30 15:49:49;;;;;;;;;;;15.60;65.80;;;;;;5002780;28;88170;-49
2021/09/30 15:52:15;;;;;;;;;;;15.60;65.80;;;;;;4999749;28;88048;-50
2021/09/30 15:54:43;;;;;;;;;;;15.60;65.90;;;;;;4997776;28;87329;-50
2021/09/30 15:57:08;;;;;;;;;;;15.50;65.90;;;;;;5000148;28;87639;-51
2021/09/30 15:59:34;;;;;;;;;;;15.60;65.80;;;;;;5000213;28;89841;-51
2021/09/30 16:02:00;;;;;;;;;;;15.60;65.80;;;;;;5000117;28;88809;-50
2021/09/30 16:04:25;;;;;;;;;;;15.50;65.90;;;;;;4997765;28;88317;-50
2021/09/30 16:06:51;;;;;;;;;;;15.60;65.90;;;;;;4996802;28;87150;-50
2021/09/30 16:09:16;;;;;;;;;;;15.60;65.90;;;;;;4997163;28;87432;-50
2021/09/30 16:11:42;;;;;;;;;;;15.50;65.80;;;;;;5000447;28;88178;-52
2021/09/30 16:14:07;;;;;;;;;;;15.50;65.80;;;;;;4999063;28;87768;-52
2021/09/30 16:16:33;;;;;;;;;;;15.60;65.90;;;;;;5000263;28;86981;-51
2021/09/30 16:18:58;;;;;;;;;;;15.60;65.90;;;;;;5000063;28;87199;-51
2021/09/30 16:21:24;;;;;;;;;;;15.50;65.80;;;;;;4999631;28;88295;-50
2021/09/30 16:23:49;;;;;;;;;;;15.50;65.90;;;;;;4995078;28;90123;-50
2021/09/30 16:26:19;;;;;;;;;;;15.50;65.90;;;;;;4996103;28;87177;-51
2021/09/30 16:28:45;;;;;;;;;;;15.50;65.90;;;;;;4995961;28;88668;-51
2021/09/30 16:31:11;;;;;;;;;;;15.50;65.90;;;;;;4997997;28;88928;-50
2021/09/30 16:33:37;;;;;;;;;;;15.50;65.90;;;;;;5003288;28;87156;-51
2021/09/30 16:36:03;;;;;;;;;;;15.50;66.00;;;;;;4998145;28;90148;-50
2021/09/30 16:38:28;;;;;;;;;;;15.50;66.00;;;;;;5002565;28;87130;-51
2021/09/30 16:40:54;;;;;;;;;;;15.50;65.80;;;;;;5004144;28;86914;-50
2021/09/30 16:43:21;;;;;;;;;;;15.50;65.80;;;;;;5003426;28;88683;-51
2021/09/30 16:45:46;;;;;;;;;;;15.50;65.90;;;;;;5004122;28;87181;-52
2021/09/30 16:48:12;;;;;;;;;;;15.50;65.80;;;;;;5001381;28;89021;-51
2021/09/30 16:50:38;;;;;;;;;;;15.50;65.70;;;;;;4999014;28;88779;-51
2021/09/30 16:53:04;;;;;;;;;;;15.50;65.80;;;;;;5000193;28;87220;-51
2021/09/30 16:55:29;;;;;;;;;;;15.50;65.80;;;;;;5003500;28;87521;-50
2021/09/30 16:57:55;;;;;;;;;;;15.60;65.70;;;;;;5001548;28;87255;-51
2021/09/30 17:00:21;;;;;;;;;;;15.50;65.70;;;;;;5000576;28;89662;-50
2021/09/30 17:02:47;;;;;;;;;;;15.50;65.70;;;;;;5000210;28;89099;-51
2021/09/30 17:05:13;;;;;;;;;;;15.50;65.70;;;;;;5000508;28;86452;-50
2021/09/30 17:07:39;;;;;;;;;;;15.50;65.70;;;;;;4999748;28;87168;-50
2021/09/30 17:10:05;;;;;;;;;;;15.50;65.60;;;;;;5000023;28;88587;-50